sensor_id;sensor_type;location;lat;lon;timestamp;P1;durP1;ratioP1;P2;durP2;ratioP2
83550;SDS011;74617;47.082;15.524;2024-03-23T00:53:10;2.08;;;0.60;;
83550;SDS011;74617;47.082;15.524;2024-03-23T00:55:36;1.60;;;0.70;;
83550;SDS011;74617;47.082;15.524;2024-03-23T00:58:01;2.45;;;1.00;;
83550;SDS011;74617;47.082;15.524;2024-03-23T01:00:26;1.75;;;0.80;;
83550;SDS011;74617;47.082;15.524;2024-03-23T01:02:52;1.75;;;0.80;;
83550;SDS011;74617;47.082;15.524;2024-03-23T01:05:18;2.85;;;1.08;;
83550;SDS011;74617;47.082;15.524;2024-03-23T01:07:43;1.75;;;1.00;;
83550;SDS011;74617;47.082;15.524;2024-03-23T01:10:08;1.65;;;1.00;;
83550;SDS011;74617;47.082;15.524;2024-03-23T01:12:34;1.40;;;0.70;;
83550;SDS011;74617;47.082;15.524;2024-03-23T01:14:59;1.25;;;0.63;;
83550;SDS011;74617;47.082;15.524;2024-03-23T01:17:25;1.38;;;0.80;;
83550;SDS011;74617;47.082;15.524;2024-03-23T01:19:50;1.33;;;0.70;;
83550;SDS011;74617;47.082;15.524;2024-03-23T01:22:15;1.58;;;0.73;;
83550;SDS011;74617;47.082;15.524;2024-03-23T01:24:41;2.50;;;0.80;;
83550;SDS011;74617;47.082;15.524;2024-03-23T01:27:06;2.05;;;0.95;;
83550;SDS011;74617;47.082;15.524;2024-03-23T01:29:32;1.88;;;0.95;;
83550;SDS011;74617;47.082;15.524;2024-03-23T01:31:57;1.42;;;0.70;;
83550;SDS011;74617;47.082;15.524;2024-03-23T01:34:22;1.40;;;0.80;;
83550;SDS011;74617;47.082;15.524;2024-03-23T01:36:49;2.38;;;0.90;;
83550;SDS011;74617;47.082;15.524;2024-03-23T01:39:15;1.92;;;0.98;;
83550;SDS011;74617;47.082;15.524;2024-03-23T01:41:41;1.55;;;0.70;;
83550;SDS011;74617;47.082;15.524;2024-03-23T01:44:08;2.22;;;0.90;;
83550;SDS011;74617;47.082;15.524;2024-03-23T01:46:34;2.17;;;0.68;;
83550;SDS011;74617;47.082;15.524;2024-03-23T01:49:00;1.80;;;0.85;;
83550;SDS011;74617;47.082;15.524;2024-03-23T01:51:26;2.83;;;1.00;;
83550;SDS011;74617;47.082;15.524;2024-03-23T01:53:52;2.20;;;0.80;;
83550;SDS011;74617;47.082;15.524;2024-03-23T01:56:19;2.25;;;0.68;;
83550;SDS011;74617;47.082;15.524;2024-03-23T01:58:45;1.63;;;0.73;;
83550;SDS011;74617;47.082;15.524;2024-03-23T02:01:10;1.50;;;0.85;;
83550;SDS011;74617;47.082;15.524;2024-03-23T02:03:36;1.40;;;0.68;;
83550;SDS011;74617;47.082;15.524;2024-03-23T02:06:01;1.42;;;0.57;;
83550;SDS011;74617;47.082;15.524;2024-03-23T02:08:27;3.58;;;0.80;;
83550;SDS011;74617;47.082;15.524;2024-03-23T02:10:53;1.40;;;0.63;;
83550;SDS011;74617;47.082;15.524;2024-03-23T02:13:19;1.20;;;0.60;;
83550;SDS011;74617;47.082;15.524;2024-03-23T02:15:44;1.23;;;0.68;;
83550;SDS011;74617;47.082;15.524;2024-03-23T02:18:10;2.25;;;1.02;;
83550;SDS011;74617;47.082;15.524;2024-03-23T02:20:36;2.53;;;1.00;;
83550;SDS011;74617;47.082;15.524;2024-03-23T02:23:02;1.95;;;0.88;;
83550;SDS011;74617;47.082;15.524;2024-03-23T02:25:28;0.93;;;0.60;;
83550;SDS011;74617;47.082;15.524;2024-03-23T02:27:53;1.23;;;0.73;;
83550;SDS011;74617;47.082;15.524;2024-03-23T02:30:23;1.63;;;0.80;;
83550;SDS011;74617;47.082;15.524;2024-03-23T02:32:49;2.03;;;1.10;;
83550;SDS011;74617;47.082;15.524;2024-03-23T02:35:14;1.65;;;0.82;;
83550;SDS011;74617;47.082;15.524;2024-03-23T02:37:40;1.17;;;0.70;;
83550;SDS011;74617;47.082;15.524;2024-03-23T02:40:05;1.90;;;0.75;;
83550;SDS011;74617;47.082;15.524;2024-03-23T02:42:31;1.10;;;0.70;;
83550;SDS011;74617;47.082;15.524;2024-03-23T02:44:56;1.58;;;0.73;;
83550;SDS011;74617;47.082;15.524;2024-03-23T02:47:23;1.75;;;0.85;;
83550;SDS011;74617;47.082;15.524;2024-03-23T02:49:49;1.63;;;0.68;;
83550;SDS011;74617;47.082;15.524;2024-03-23T02:52:14;1.30;;;0.75;;
83550;SDS011;74617;47.082;15.524;2024-03-23T02:54:40;1.50;;;0.70;;
83550;SDS011;74617;47.082;15.524;2024-03-23T02:57:07;2.72;;;0.70;;
83550;SDS011;74617;47.082;15.524;2024-03-23T02:59:32;1.17;;;0.80;;
83550;SDS011;74617;47.082;15.524;2024-03-23T03:01:58;1.65;;;0.73;;
83550;SDS011;74617;47.082;15.524;2024-03-23T03:04:25;1.85;;;0.65;;
83550;SDS011;74617;47.082;15.524;2024-03-23T03:06:50;3.15;;;0.98;;
83550;SDS011;74617;47.082;15.524;2024-03-23T03:09:15;1.05;;;0.80;;
83550;SDS011;74617;47.082;15.524;2024-03-23T03:11:41;1.70;;;0.75;;
83550;SDS011;74617;47.082;15.524;2024-03-23T03:14:06;1.42;;;0.77;;
83550;SDS011;74617;47.082;15.524;2024-03-23T03:16:34;2.63;;;0.70;;
83550;SDS011;74617;47.082;15.524;2024-03-23T03:18:59;2.35;;;0.93;;
83550;SDS011;74617;47.082;15.524;2024-03-23T03:21:25;1.48;;;0.77;;
83550;SDS011;74617;47.082;15.524;2024-03-23T03:23:50;1.73;;;0.82;;
83550;SDS011;74617;47.082;15.524;2024-03-23T03:26:19;1.48;;;0.80;;
83550;SDS011;74617;47.082;15.524;2024-03-23T03:28:44;2.80;;;1.00;;
83550;SDS011;74617;47.082;15.524;2024-03-23T03:31:13;1.35;;;0.60;;
83550;SDS011;74617;47.082;15.524;2024-03-23T03:33:39;0.68;;;0.40;;
83550;SDS011;74617;47.082;15.524;2024-03-23T03:36:05;1.70;;;0.85;;
83550;SDS011;74617;47.082;15.524;2024-03-23T03:38:30;1.58;;;0.70;;
83550;SDS011;74617;47.082;15.524;2024-03-23T03:40:56;1.35;;;0.63;;
83550;SDS011;74617;47.082;15.524;2024-03-23T03:43:23;1.80;;;0.73;;
83550;SDS011;74617;47.082;15.524;2024-03-23T03:45:56;2.10;;;0.98;;
83550;SDS011;74617;47.082;15.524;2024-03-23T03:48:23;1.45;;;0.70;;
83550;SDS011;74617;47.082;15.524;2024-03-23T03:50:49;1.55;;;0.70;;
83550;SDS011;74617;47.082;15.524;2024-03-23T03:53:14;2.28;;;0.82;;
83550;SDS011;74617;47.082;15.524;2024-03-23T03:55:40;1.55;;;0.70;;
83550;SDS011;74617;47.082;15.524;2024-03-23T03:58:05;2.60;;;1.10;;
83550;SDS011;74617;47.082;15.524;2024-03-23T04:00:30;1.45;;;0.88;;
83550;SDS011;74617;47.082;15.524;2024-03-23T04:02:56;1.25;;;0.68;;
83550;SDS011;74617;47.082;15.524;2024-03-23T04:05:22;1.60;;;0.77;;
83550;SDS011;74617;47.082;15.524;2024-03-23T04:07:47;4.13;;;0.80;;
83550;SDS011;74617;47.082;15.524;2024-03-23T04:10:13;0.95;;;0.63;;
83550;SDS011;74617;47.082;15.524;2024-03-23T04:12:40;1.35;;;0.50;;
83550;SDS011;74617;47.082;15.524;2024-03-23T04:15:05;2.55;;;0.77;;
83550;SDS011;74617;47.082;15.524;2024-03-23T04:17:31;1.83;;;0.90;;
83550;SDS011;74617;47.082;15.524;2024-03-23T04:19:58;1.83;;;1.08;;
83550;SDS011;74617;47.082;15.524;2024-03-23T04:22:23;2.05;;;0.88;;
83550;SDS011;74617;47.082;15.524;2024-03-23T04:24:55;1.10;;;0.65;;
83550;SDS011;74617;47.082;15.524;2024-03-23T04:27:22;1.40;;;0.90;;
83550;SDS011;74617;47.082;15.524;2024-03-23T04:29:51;2.10;;;0.80;;
83550;SDS011;74617;47.082;15.524;2024-03-23T04:32:18;2.28;;;0.60;;
83550;SDS011;74617;47.082;15.524;2024-03-23T04:34:43;1.95;;;1.00;;
83550;SDS011;74617;47.082;15.524;2024-03-23T04:37:09;1.83;;;0.82;;
83550;SDS011;74617;47.082;15.524;2024-03-23T04:39:38;0.90;;;0.55;;
83550;SDS011;74617;47.082;15.524;2024-03-23T04:42:04;1.10;;;0.68;;
83550;SDS011;74617;47.082;15.524;2024-03-23T04:44:30;1.25;;;0.55;;
83550;SDS011;74617;47.082;15.524;2024-03-23T04:46:56;1.70;;;0.88;;
83550;SDS011;74617;47.082;15.524;2024-03-23T04:49:22;1.58;;;0.88;;
83550;SDS011;74617;47.082;15.524;2024-03-23T04:51:47;1.63;;;0.70;;
83550;SDS011;74617;47.082;15.524;2024-03-23T04:54:13;2.15;;;0.77;;
83550;SDS011;74617;47.082;15.524;2024-03-23T04:56:38;1.35;;;0.63;;
83550;SDS011;74617;47.082;15.524;2024-03-23T04:59:04;1.42;;;0.75;;
83550;SDS011;74617;47.082;15.524;2024-03-23T05:01:30;1.33;;;0.80;;
83550;SDS011;74617;47.082;15.524;2024-03-23T05:03:56;0.88;;;0.52;;
83550;SDS011;74617;47.082;15.524;2024-03-23T05:06:22;1.85;;;0.90;;
83550;SDS011;74617;47.082;15.524;2024-03-23T05:08:48;1.88;;;0.90;;
83550;SDS011;74617;47.082;15.524;2024-03-23T05:11:14;1.67;;;0.80;;
83550;SDS011;74617;47.082;15.524;2024-03-23T05:13:40;1.08;;;0.50;;
83550;SDS011;74617;47.082;15.524;2024-03-23T05:16:06;3.35;;;1.00;;
83550;SDS011;74617;47.082;15.524;2024-03-23T05:18:31;0.88;;;0.60;;
83550;SDS011;74617;47.082;15.524;2024-03-23T05:20:57;1.10;;;0.60;;
83550;SDS011;74617;47.082;15.524;2024-03-23T05:23:23;1.73;;;0.80;;
83550;SDS011;74617;47.082;15.524;2024-03-23T05:25:49;1.40;;;0.60;;
83550;SDS011;74617;47.082;15.524;2024-03-23T05:28:14;1.35;;;0.70;;
83550;SDS011;74617;47.082;15.524;2024-03-23T05:30:40;1.05;;;0.80;;
83550;SDS011;74617;47.082;15.524;2024-03-23T05:33:05;2.17;;;0.98;;
83550;SDS011;74617;47.082;15.524;2024-03-23T05:35:31;1.83;;;0.80;;
83550;SDS011;74617;47.082;15.524;2024-03-23T05:37:57;0.60;;;0.50;;
83550;SDS011;74617;47.082;15.524;2024-03-23T05:40:23;1.67;;;0.82;;
83550;SDS011;74617;47.082;15.524;2024-03-23T05:42:49;1.35;;;0.70;;
83550;SDS011;74617;47.082;15.524;2024-03-23T05:45:17;2.00;;;0.70;;
83550;SDS011;74617;47.082;15.524;2024-03-23T05:47:43;1.52;;;0.60;;
83550;SDS011;74617;47.082;15.524;2024-03-23T05:50:09;2.63;;;0.95;;
83550;SDS011;74617;47.082;15.524;2024-03-23T05:52:37;1.17;;;0.70;;
83550;SDS011;74617;47.082;15.524;2024-03-23T05:55:03;2.15;;;0.88;;
83550;SDS011;74617;47.082;15.524;2024-03-23T05:57:29;2.33;;;0.70;;
83550;SDS011;74617;47.082;15.524;2024-03-23T05:59:54;0.73;;;0.55;;
83550;SDS011;74617;47.082;15.524;2024-03-23T06:02:20;1.70;;;0.75;;
83550;SDS011;74617;47.082;15.524;2024-03-23T06:04:45;1.83;;;0.90;;
83550;SDS011;74617;47.082;15.524;2024-03-23T06:07:11;2.20;;;1.05;;
83550;SDS011;74617;47.082;15.524;2024-03-23T06:09:39;3.22;;;1.08;;
83550;SDS011;74617;47.082;15.524;2024-03-23T06:12:05;2.05;;;1.00;;
83550;SDS011;74617;47.082;15.524;2024-03-23T06:14:30;2.05;;;0.85;;
83550;SDS011;74617;47.082;15.524;2024-03-23T06:16:56;2.25;;;1.20;;
83550;SDS011;74617;47.082;15.524;2024-03-23T06:19:21;4.22;;;1.50;;
83550;SDS011;74617;47.082;15.524;2024-03-23T06:21:47;2.35;;;1.17;;
83550;SDS011;74617;47.082;15.524;2024-03-23T06:24:12;4.22;;;1.25;;
83550;SDS011;74617;47.082;15.524;2024-03-23T06:26:38;12.52;;;1.98;;
83550;SDS011;74617;47.082;15.524;2024-03-23T06:29:03;5.82;;;1.77;;
83550;SDS011;74617;47.082;15.524;2024-03-23T06:31:30;6.15;;;1.70;;
83550;SDS011;74617;47.082;15.524;2024-03-23T06:33:55;8.27;;;2.20;;
83550;SDS011;74617;47.082;15.524;2024-03-23T06:36:21;4.22;;;1.88;;
83550;SDS011;74617;47.082;15.524;2024-03-23T06:38:46;3.38;;;1.60;;
83550;SDS011;74617;47.082;15.524;2024-03-23T06:41:12;6.55;;;1.88;;
83550;SDS011;74617;47.082;15.524;2024-03-23T06:43:37;3.30;;;1.50;;
83550;SDS011;74617;47.082;15.524;2024-03-23T06:46:03;3.45;;;1.52;;
83550;SDS011;74617;47.082;15.524;2024-03-23T06:48:31;6.55;;;1.90;;
83550;SDS011;74617;47.082;15.524;2024-03-23T06:50:57;4.63;;;1.35;;
83550;SDS011;74617;47.082;15.524;2024-03-23T06:53:22;4.97;;;1.63;;
83550;SDS011;74617;47.082;15.524;2024-03-23T06:55:54;7.82;;;2.00;;
83550;SDS011;74617;47.082;15.524;2024-03-23T06:58:20;6.15;;;2.17;;
83550;SDS011;74617;47.082;15.524;2024-03-23T07:00:49;6.88;;;2.08;;
83550;SDS011;74617;47.082;15.524;2024-03-23T07:03:15;5.30;;;1.83;;
83550;SDS011;74617;47.082;15.524;2024-03-23T07:05:41;5.03;;;1.88;;
83550;SDS011;74617;47.082;15.524;2024-03-23T07:08:07;4.55;;;1.70;;
83550;SDS011;74617;47.082;15.524;2024-03-23T07:10:33;8.73;;;1.70;;
83550;SDS011;74617;47.082;15.524;2024-03-23T07:12:58;5.55;;;1.90;;
83550;SDS011;74617;47.082;15.524;2024-03-23T07:15:24;2.75;;;1.60;;
83550;SDS011;74617;47.082;15.524;2024-03-23T07:17:49;3.92;;;1.73;;
83550;SDS011;74617;47.082;15.524;2024-03-23T07:20:15;3.00;;;1.55;;
83550;SDS011;74617;47.082;15.524;2024-03-23T07:22:41;11.00;;;1.75;;
83550;SDS011;74617;47.082;15.524;2024-03-23T07:25:06;2.65;;;1.30;;
83550;SDS011;74617;47.082;15.524;2024-03-23T07:27:32;4.28;;;1.77;;
83550;SDS011;74617;47.082;15.524;2024-03-23T07:29:58;5.85;;;1.80;;
83550;SDS011;74617;47.082;15.524;2024-03-23T07:32:24;3.75;;;1.60;;
83550;SDS011;74617;47.082;15.524;2024-03-23T07:34:51;9.00;;;2.45;;
83550;SDS011;74617;47.082;15.524;2024-03-23T07:37:17;6.88;;;2.10;;
83550;SDS011;74617;47.082;15.524;2024-03-23T07:39:42;5.38;;;1.65;;
83550;SDS011;74617;47.082;15.524;2024-03-23T07:42:07;4.15;;;1.88;;
83550;SDS011;74617;47.082;15.524;2024-03-23T07:44:33;5.78;;;1.70;;
83550;SDS011;74617;47.082;15.524;2024-03-23T07:46:59;5.65;;;1.55;;
83550;SDS011;74617;47.082;15.524;2024-03-23T07:49:25;3.08;;;1.80;;
83550;SDS011;74617;47.082;15.524;2024-03-23T07:51:51;4.43;;;1.80;;
83550;SDS011;74617;47.082;15.524;2024-03-23T07:54:16;6.47;;;2.00;;
83550;SDS011;74617;47.082;15.524;2024-03-23T07:56:41;6.97;;;1.60;;
83550;SDS011;74617;47.082;15.524;2024-03-23T07:59:07;10.73;;;1.92;;
83550;SDS011;74617;47.082;15.524;2024-03-23T08:01:32;3.25;;;1.58;;
83550;SDS011;74617;47.082;15.524;2024-03-23T08:03:57;2.72;;;1.35;;
83550;SDS011;74617;47.082;15.524;2024-03-23T08:06:23;4.72;;;1.77;;
83550;SDS011;74617;47.082;15.524;2024-03-23T08:08:49;5.20;;;1.80;;
83550;SDS011;74617;47.082;15.524;2024-03-23T08:11:24;4.57;;;1.85;;
83550;SDS011;74617;47.082;15.524;2024-03-23T08:13:51;4.40;;;1.88;;
83550;SDS011;74617;47.082;15.524;2024-03-23T08:16:16;4.28;;;1.70;;
83550;SDS011;74617;47.082;15.524;2024-03-23T08:18:41;3.45;;;1.58;;
83550;SDS011;74617;47.082;15.524;2024-03-23T08:21:07;3.50;;;1.42;;
83550;SDS011;74617;47.082;15.524;2024-03-23T08:23:35;3.78;;;1.80;;
83550;SDS011;74617;47.082;15.524;2024-03-23T08:26:03;5.65;;;1.60;;
83550;SDS011;74617;47.082;15.524;2024-03-23T08:28:29;3.72;;;1.67;;
83550;SDS011;74617;47.082;15.524;2024-03-23T08:30:55;2.95;;;1.67;;
83550;SDS011;74617;47.082;15.524;2024-03-23T08:33:21;5.45;;;1.33;;
83550;SDS011;74617;47.082;15.524;2024-03-23T08:35:57;4.55;;;1.52;;
83550;SDS011;74617;47.082;15.524;2024-03-23T08:38:24;3.17;;;1.50;;
83550;SDS011;74617;47.082;15.524;2024-03-23T08:41:00;2.55;;;1.35;;
83550;SDS011;74617;47.082;15.524;2024-03-23T08:43:30;6.95;;;1.63;;
83550;SDS011;74617;47.082;15.524;2024-03-23T08:46:04;8.25;;;1.73;;
83550;SDS011;74617;47.082;15.524;2024-03-23T08:48:39;4.72;;;1.98;;
83550;SDS011;74617;47.082;15.524;2024-03-23T08:51:08;3.00;;;1.50;;
83550;SDS011;74617;47.082;15.524;2024-03-23T08:53:35;4.10;;;1.73;;
83550;SDS011;74617;47.082;15.524;2024-03-23T08:56:01;3.45;;;2.00;;
83550;SDS011;74617;47.082;15.524;2024-03-23T08:58:27;4.40;;;1.60;;
83550;SDS011;74617;47.082;15.524;2024-03-23T09:00:54;2.70;;;1.33;;
83550;SDS011;74617;47.082;15.524;2024-03-23T09:03:26;4.20;;;1.90;;
83550;SDS011;74617;47.082;15.524;2024-03-23T09:05:52;7.38;;;2.15;;
83550;SDS011;74617;47.082;15.524;2024-03-23T09:08:17;9.30;;;1.80;;
83550;SDS011;74617;47.082;15.524;2024-03-23T09:10:43;6.45;;;2.15;;
83550;SDS011;74617;47.082;15.524;2024-03-23T09:13:09;5.63;;;1.92;;
83550;SDS011;74617;47.082;15.524;2024-03-23T09:15:36;3.72;;;1.52;;
83550;SDS011;74617;47.082;15.524;2024-03-23T09:18:03;2.88;;;1.40;;
83550;SDS011;74617;47.082;15.524;2024-03-23T09:20:29;4.40;;;2.13;;
83550;SDS011;74617;47.082;15.524;2024-03-23T09:22:57;4.95;;;2.17;;
83550;SDS011;74617;47.082;15.524;2024-03-23T09:25:23;4.25;;;1.45;;
83550;SDS011;74617;47.082;15.524;2024-03-23T09:27:48;4.93;;;1.90;;
83550;SDS011;74617;47.082;15.524;2024-03-23T09:30:14;6.70;;;2.30;;
83550;SDS011;74617;47.082;15.524;2024-03-23T09:32:43;4.18;;;2.00;;
83550;SDS011;74617;47.082;15.524;2024-03-23T09:35:09;6.57;;;2.25;;
83550;SDS011;74617;47.082;15.524;2024-03-23T09:37:35;4.18;;;1.80;;
83550;SDS011;74617;47.082;15.524;2024-03-23T09:40:01;6.63;;;2.25;;
83550;SDS011;74617;47.082;15.524;2024-03-23T09:42:26;6.03;;;2.10;;
83550;SDS011;74617;47.082;15.524;2024-03-23T09:44:52;4.13;;;2.17;;
83550;SDS011;74617;47.082;15.524;2024-03-23T09:47:20;3.30;;;2.15;;
83550;SDS011;74617;47.082;15.524;2024-03-23T09:49:46;3.97;;;1.70;;
83550;SDS011;74617;47.082;15.524;2024-03-23T09:52:11;5.43;;;1.90;;
83550;SDS011;74617;47.082;15.524;2024-03-23T09:54:36;5.88;;;1.73;;
83550;SDS011;74617;47.082;15.524;2024-03-23T09:57:02;6.53;;;1.55;;
83550;SDS011;74617;47.082;15.524;2024-03-23T09:59:29;4.10;;;1.27;;
83550;SDS011;74617;47.082;15.524;2024-03-23T10:01:54;3.28;;;1.58;;
83550;SDS011;74617;47.082;15.524;2024-03-23T10:04:36;3.83;;;1.80;;
83550;SDS011;74617;47.082;15.524;2024-03-23T10:07:14;5.47;;;1.90;;
83550;SDS011;74617;47.082;15.524;2024-03-23T10:09:42;5.20;;;1.95;;
83550;SDS011;74617;47.082;15.524;2024-03-23T10:12:11;3.95;;;2.03;;
83550;SDS011;74617;47.082;15.524;2024-03-23T10:14:38;3.17;;;1.58;;
83550;SDS011;74617;47.082;15.524;2024-03-23T10:17:15;3.42;;;1.45;;
83550;SDS011;74617;47.082;15.524;2024-03-23T10:19:47;4.63;;;2.20;;
83550;SDS011;74617;47.082;15.524;2024-03-23T10:22:18;2.55;;;1.42;;
83550;SDS011;74617;47.082;15.524;2024-03-23T10:27:10;4.45;;;1.90;;
83550;SDS011;74617;47.082;15.524;2024-03-23T10:29:40;3.20;;;1.85;;
83550;SDS011;74617;47.082;15.524;2024-03-23T10:32:12;2.42;;;1.50;;
83550;SDS011;74617;47.082;15.524;2024-03-23T10:34:39;3.65;;;1.83;;
83550;SDS011;74617;47.082;15.524;2024-03-23T10:37:05;3.38;;;1.70;;
83550;SDS011;74617;47.082;15.524;2024-03-23T10:39:35;5.03;;;1.50;;
83550;SDS011;74617;47.082;15.524;2024-03-23T10:42:03;3.05;;;1.60;;
83550;SDS011;74617;47.082;15.524;2024-03-23T10:44:30;2.15;;;1.20;;
83550;SDS011;74617;47.082;15.524;2024-03-23T10:46:59;4.35;;;1.60;;
83550;SDS011;74617;47.082;15.524;2024-03-23T10:49:26;7.10;;;1.60;;
83550;SDS011;74617;47.082;15.524;2024-03-23T10:51:56;3.22;;;1.42;;
83550;SDS011;74617;47.082;15.524;2024-03-23T10:54:23;3.58;;;1.35;;
83550;SDS011;74617;47.082;15.524;2024-03-23T10:56:50;2.53;;;1.33;;
83550;SDS011;74617;47.082;15.524;2024-03-23T10:59:20;3.20;;;1.35;;
83550;SDS011;74617;47.082;15.524;2024-03-23T11:01:56;2.55;;;1.63;;
83550;SDS011;74617;47.082;15.524;2024-03-23T11:04:37;3.53;;;1.52;;
83550;SDS011;74617;47.082;15.524;2024-03-23T11:09:51;2.38;;;1.35;;
83550;SDS011;74617;47.082;15.524;2024-03-23T11:14:55;3.42;;;1.50;;
83550;SDS011;74617;47.082;15.524;2024-03-23T11:17:24;2.67;;;1.30;;
83550;SDS011;74617;47.082;15.524;2024-03-23T11:20:00;2.53;;;1.45;;
83550;SDS011;74617;47.082;15.524;2024-03-23T11:25:21;4.03;;;1.58;;
83550;SDS011;74617;47.082;15.524;2024-03-23T11:27:51;2.50;;;1.30;;
83550;SDS011;74617;47.082;15.524;2024-03-23T11:30:20;3.28;;;1.58;;
83550;SDS011;74617;47.082;15.524;2024-03-23T11:32:48;4.35;;;1.75;;
83550;SDS011;74617;47.082;15.524;2024-03-23T11:35:27;5.72;;;1.63;;
83550;SDS011;74617;47.082;15.524;2024-03-23T11:38:05;3.85;;;1.75;;
83550;SDS011;74617;47.082;15.524;2024-03-23T11:40:41;6.40;;;2.10;;
83550;SDS011;74617;47.082;15.524;2024-03-23T11:43:08;4.50;;;1.70;;
83550;SDS011;74617;47.082;15.524;2024-03-23T11:50:38;4.55;;;2.03;;
83550;SDS011;74617;47.082;15.524;2024-03-23T11:58:12;2.70;;;1.33;;
83550;SDS011;74617;47.082;15.524;2024-03-23T12:00:38;3.05;;;1.70;;
83550;SDS011;74617;47.082;15.524;2024-03-23T12:03:04;2.28;;;1.55;;
83550;SDS011;74617;47.082;15.524;2024-03-23T12:05:31;3.42;;;1.60;;
83550;SDS011;74617;47.082;15.524;2024-03-23T12:10:51;4.65;;;1.77;;
83550;SDS011;74617;47.082;15.524;2024-03-23T12:13:18;3.85;;;1.70;;
83550;SDS011;74617;47.082;15.524;2024-03-23T12:15:44;3.33;;;1.73;;
83550;SDS011;74617;47.082;15.524;2024-03-23T12:18:11;3.30;;;1.70;;
83550;SDS011;74617;47.082;15.524;2024-03-23T12:20:37;3.80;;;1.75;;
83550;SDS011;74617;47.082;15.524;2024-03-23T12:23:10;2.97;;;1.40;;
83550;SDS011;74617;47.082;15.524;2024-03-23T12:25:37;2.60;;;1.48;;
83550;SDS011;74617;47.082;15.524;2024-03-23T12:28:04;3.75;;;1.30;;
83550;SDS011;74617;47.082;15.524;2024-03-23T12:30:36;3.38;;;1.67;;
83550;SDS011;74617;47.082;15.524;2024-03-23T12:33:04;3.53;;;1.42;;
83550;SDS011;74617;47.082;15.524;2024-03-23T12:35:31;3.60;;;1.67;;
83550;SDS011;74617;47.082;15.524;2024-03-23T12:37:56;3.95;;;1.75;;
83550;SDS011;74617;47.082;15.524;2024-03-23T12:40:22;3.08;;;1.77;;
83550;SDS011;74617;47.082;15.524;2024-03-23T12:42:47;3.92;;;2.00;;
83550;SDS011;74617;47.082;15.524;2024-03-23T12:45:13;5.45;;;2.30;;
83550;SDS011;74617;47.082;15.524;2024-03-23T12:47:38;3.10;;;1.60;;
83550;SDS011;74617;47.082;15.524;2024-03-23T12:50:04;5.25;;;1.80;;
83550;SDS011;74617;47.082;15.524;2024-03-23T12:52:30;3.63;;;1.90;;
83550;SDS011;74617;47.082;15.524;2024-03-23T12:54:56;4.72;;;1.58;;
83550;SDS011;74617;47.082;15.524;2024-03-23T12:57:24;5.68;;;1.77;;
83550;SDS011;74617;47.082;15.524;2024-03-23T12:59:53;3.65;;;1.58;;
83550;SDS011;74617;47.082;15.524;2024-03-23T13:02:22;3.95;;;1.55;;
83550;SDS011;74617;47.082;15.524;2024-03-23T13:04:54;3.63;;;1.80;;
83550;SDS011;74617;47.082;15.524;2024-03-23T13:07:20;3.47;;;1.80;;
83550;SDS011;74617;47.082;15.524;2024-03-23T13:09:47;2.85;;;1.48;;
83550;SDS011;74617;47.082;15.524;2024-03-23T13:12:15;2.30;;;1.40;;
83550;SDS011;74617;47.082;15.524;2024-03-23T13:14:41;3.70;;;1.52;;
83550;SDS011;74617;47.082;15.524;2024-03-23T13:17:07;5.35;;;2.08;;
83550;SDS011;74617;47.082;15.524;2024-03-23T13:19:33;3.53;;;1.58;;
83550;SDS011;74617;47.082;15.524;2024-03-23T13:22:02;4.22;;;1.67;;
83550;SDS011;74617;47.082;15.524;2024-03-23T13:24:28;4.00;;;1.70;;
83550;SDS011;74617;47.082;15.524;2024-03-23T13:26:55;2.30;;;1.10;;
83550;SDS011;74617;47.082;15.524;2024-03-23T13:29:21;3.97;;;1.35;;
83550;SDS011;74617;47.082;15.524;2024-03-23T13:31:48;2.40;;;1.48;;
83550;SDS011;74617;47.082;15.524;2024-03-23T13:34:13;2.83;;;1.67;;
83550;SDS011;74617;47.082;15.524;2024-03-23T13:36:40;2.65;;;1.38;;
83550;SDS011;74617;47.082;15.524;2024-03-23T13:39:12;3.53;;;1.50;;
83550;SDS011;74617;47.082;15.524;2024-03-23T13:41:39;3.20;;;1.27;;
83550;SDS011;74617;47.082;15.524;2024-03-23T13:44:09;4.03;;;1.52;;
83550;SDS011;74617;47.082;15.524;2024-03-23T13:46:36;4.22;;;1.20;;
83550;SDS011;74617;47.082;15.524;2024-03-23T13:49:02;3.47;;;1.60;;
83550;SDS011;74617;47.082;15.524;2024-03-23T13:51:28;2.42;;;1.20;;
83550;SDS011;74617;47.082;15.524;2024-03-23T13:53:53;4.57;;;1.63;;
83550;SDS011;74617;47.082;15.524;2024-03-23T13:56:20;5.47;;;1.70;;
83550;SDS011;74617;47.082;15.524;2024-03-23T13:58:45;2.17;;;1.20;;
83550;SDS011;74617;47.082;15.524;2024-03-23T14:01:12;2.72;;;1.35;;
83550;SDS011;74617;47.082;15.524;2024-03-23T14:03:38;1.88;;;1.15;;
83550;SDS011;74617;47.082;15.524;2024-03-23T14:06:04;4.32;;;1.48;;
83550;SDS011;74617;47.082;15.524;2024-03-23T14:08:31;3.38;;;1.10;;
83550;SDS011;74617;47.082;15.524;2024-03-23T14:10:58;1.50;;;1.00;;
83550;SDS011;74617;47.082;15.524;2024-03-23T14:13:23;2.42;;;1.30;;
83550;SDS011;74617;47.082;15.524;2024-03-23T14:15:52;3.08;;;1.40;;
83550;SDS011;74617;47.082;15.524;2024-03-23T14:18:20;3.65;;;1.50;;
83550;SDS011;74617;47.082;15.524;2024-03-23T14:20:48;2.33;;;1.20;;
83550;SDS011;74617;47.082;15.524;2024-03-23T14:23:13;4.28;;;1.80;;
83550;SDS011;74617;47.082;15.524;2024-03-23T14:25:39;8.07;;;1.52;;
83550;SDS011;74617;47.082;15.524;2024-03-23T14:28:04;2.78;;;1.20;;
83550;SDS011;74617;47.082;15.524;2024-03-23T14:30:30;3.65;;;1.40;;
83550;SDS011;74617;47.082;15.524;2024-03-23T14:32:56;4.70;;;1.80;;
83550;SDS011;74617;47.082;15.524;2024-03-23T14:35:22;4.40;;;1.40;;
83550;SDS011;74617;47.082;15.524;2024-03-23T14:37:48;2.72;;;1.30;;
83550;SDS011;74617;47.082;15.524;2024-03-23T14:40:14;2.28;;;1.13;;
83550;SDS011;74617;47.082;15.524;2024-03-23T14:42:39;4.57;;;1.58;;
83550;SDS011;74617;47.082;15.524;2024-03-23T14:45:06;2.33;;;1.13;;
83550;SDS011;74617;47.082;15.524;2024-03-23T14:47:32;3.13;;;1.42;;
83550;SDS011;74617;47.082;15.524;2024-03-23T14:49:58;2.35;;;1.08;;
83550;SDS011;74617;47.082;15.524;2024-03-23T14:52:23;2.08;;;1.13;;
83550;SDS011;74617;47.082;15.524;2024-03-23T14:54:49;3.55;;;1.50;;
83550;SDS011;74617;47.082;15.524;2024-03-23T14:57:15;6.03;;;1.52;;
83550;SDS011;74617;47.082;15.524;2024-03-23T14:59:40;4.90;;;1.23;;
83550;SDS011;74617;47.082;15.524;2024-03-23T15:02:08;2.33;;;1.30;;
83550;SDS011;74617;47.082;15.524;2024-03-23T15:04:34;2.17;;;1.17;;
83550;SDS011;74617;47.082;15.524;2024-03-23T15:07:00;2.92;;;1.30;;
83550;SDS011;74617;47.082;15.524;2024-03-23T15:09:25;4.88;;;1.42;;
83550;SDS011;74617;47.082;15.524;2024-03-23T15:11:51;3.63;;;1.17;;
83550;SDS011;74617;47.082;15.524;2024-03-23T15:14:16;3.47;;;1.17;;
83550;SDS011;74617;47.082;15.524;2024-03-23T15:16:42;3.63;;;1.20;;
83550;SDS011;74617;47.082;15.524;2024-03-23T15:19:07;1.92;;;1.00;;
83550;SDS011;74617;47.082;15.524;2024-03-23T15:21:33;3.88;;;1.20;;
83550;SDS011;74617;47.082;15.524;2024-03-23T15:23:59;3.05;;;1.15;;
83550;SDS011;74617;47.082;15.524;2024-03-23T15:26:24;2.30;;;1.15;;
83550;SDS011;74617;47.082;15.524;2024-03-23T15:28:50;1.98;;;1.10;;
83550;SDS011;74617;47.082;15.524;2024-03-23T15:31:21;3.33;;;1.33;;
83550;SDS011;74617;47.082;15.524;2024-03-23T15:33:47;2.28;;;1.08;;
83550;SDS011;74617;47.082;15.524;2024-03-23T15:36:12;1.88;;;1.20;;
83550;SDS011;74617;47.082;15.524;2024-03-23T15:38:37;2.92;;;1.05;;
83550;SDS011;74617;47.082;15.524;2024-03-23T15:41:05;2.55;;;1.08;;
83550;SDS011;74617;47.082;15.524;2024-03-23T15:43:31;4.38;;;1.33;;
83550;SDS011;74617;47.082;15.524;2024-03-23T15:45:57;1.95;;;1.15;;